createdAt,value
2019-04-14T00:01:13.240Z,53.17
2019-04-14T00:04:05.283Z,56.50
2019-04-14T00:06:41.905Z,60.60
2019-04-14T00:09:20.462Z,57.67
2019-04-14T00:11:56.822Z,56.70
2019-04-14T00:14:31.691Z,59.57
2019-04-14T00:17:06.621Z,55.27
2019-04-14T00:19:41.370Z,58.70
2019-04-14T00:22:16.305Z,58.33
2019-04-14T00:24:51.133Z,54.13
2019-04-14T00:27:25.964Z,52.43
2019-04-14T00:30:01.154Z,52.83
2019-04-14T00:32:44.454Z,50.40
2019-04-14T00:35:29.915Z,49.40
2019-04-14T00:38:17.417Z,48.73
2019-04-14T00:41:18.001Z,48.03
2019-04-14T00:44:12.699Z,48.10
2019-04-14T00:46:54.199Z,49.77
2019-04-14T00:49:29.191Z,50.40
2019-04-14T00:52:04.099Z,50.73
2019-04-14T00:54:39.378Z,54.73
2019-04-14T00:57:14.290Z,52.27
2019-04-14T00:59:49.098Z,52.80
2019-04-14T01:02:23.889Z,51.53
2019-04-14T01:05:00.026Z,49.97
2019-04-14T01:07:35.031Z,50.57
2019-04-14T01:10:10.409Z,52.87
2019-04-14T01:12:45.368Z,55.83
2019-04-14T01:15:20.156Z,51.47
2019-04-14T01:17:54.999Z,51.97
2019-04-14T01:20:29.832Z,53.10
2019-04-14T01:23:04.738Z,57.20
2019-04-14T01:25:39.447Z,53.60
2019-04-14T01:28:14.175Z,55.13
2019-04-14T01:30:50.037Z,57.00
2019-04-14T01:33:25.048Z,56.87
2019-04-14T01:35:59.963Z,46.83
2019-04-14T01:38:34.706Z,54.00
2019-04-14T01:41:10.589Z,55.33
2019-04-14T01:43:45.530Z,54.63
2019-04-14T01:46:25.770Z,60.00
2019-04-14T01:48:56.755Z,55.43
2019-04-14T01:51:50.711Z,60.20
2019-04-14T01:54:34.764Z,58.53
2019-04-14T01:57:28.433Z,59.73
2019-04-14T02:00:22.751Z,56.00
2019-04-14T02:02:57.741Z,56.13
2019-04-14T02:05:32.458Z,55.57
2019-04-14T02:08:07.291Z,60.87
2019-04-14T02:10:43.362Z,54.10
2019-04-14T02:13:18.395Z,54.27
2019-04-14T02:15:53.242Z,57.37
2019-04-14T02:18:27.989Z,58.73
2019-04-14T02:21:02.789Z,58.87
2019-04-14T02:23:38.669Z,59.93
2019-04-14T02:26:13.575Z,55.80
2019-04-14T02:28:48.349Z,57.40
2019-04-14T02:31:43.308Z,58.70
2019-04-14T02:34:34.194Z,60.30
2019-04-14T02:37:08.357Z,52.03
2019-04-14T02:39:38.638Z,55.37
2019-04-14T02:42:34.323Z,57.47
2019-04-14T02:47:48.898Z,56.77
2019-04-14T02:50:08.743Z,56.63
2019-04-14T02:52:41.576Z,53.27
2019-04-14T02:55:15.845Z,55.93
2019-04-14T02:57:52.843Z,57.93
2019-04-14T03:00:49.017Z,56.05
2019-04-14T03:03:10.585Z,50.40
2019-04-14T03:08:29.424Z,56.67
2019-04-14T03:11:04.023Z,54.77
2019-04-14T03:13:35.139Z,54.17
2019-04-14T03:16:17.543Z,55.43
2019-04-14T03:19:20.444Z,56.83
2019-04-14T03:22:12.577Z,56.07
2019-04-14T03:24:46.616Z,53.77
2019-04-14T03:33:54.312Z,53.37
2019-04-14T03:36:20.971Z,51.43
2019-04-14T03:41:17.441Z,53.60
2019-04-14T03:43:43.075Z,53.97
2019-04-14T03:46:25.451Z,54.00
2019-04-14T03:49:06.281Z,54.33
2019-04-14T03:51:55.838Z,53.40
2019-04-14T03:54:11.036Z,55.67
2019-04-14T03:56:46.772Z,54.67
2019-04-14T03:59:22.011Z,54.63
2019-04-14T04:01:58.611Z,52.70
2019-04-14T04:04:33.779Z,54.80
2019-04-14T04:07:08.556Z,56.23
2019-04-14T04:09:54.624Z,56.27
2019-04-14T04:12:29.429Z,55.20
2019-04-14T04:15:04.701Z,55.80
2019-04-14T04:17:51.668Z,56.80
2019-04-14T04:20:52.437Z,55.50
2019-04-14T04:23:36.228Z,59.57
2019-04-14T04:26:19.507Z,53.10
2019-04-14T04:29:11.226Z,56.90
2019-04-14T04:32:05.702Z,57.87
2019-04-14T04:34:59.939Z,54.50
2019-04-14T04:37:39.230Z,56.47
2019-04-14T04:40:20.675Z,56.87
2019-04-14T04:42:55.452Z,55.17
2019-04-14T04:45:30.179Z,61.53
2019-04-14T04:48:05.042Z,59.80
2019-04-14T04:50:40.926Z,58.57
2019-04-14T04:53:15.914Z,59.03
2019-04-14T04:55:50.672Z,59.40
2019-04-14T04:58:26.247Z,59.43
2019-04-14T05:01:01.470Z,60.30
2019-04-14T05:03:36.413Z,60.80
2019-04-14T05:07:03.164Z,62.27
2019-04-14T05:09:57.764Z,59.63
2019-04-14T05:12:54.842Z,63.93
2019-04-14T05:16:04.236Z,62.50
2019-04-14T05:18:39.848Z,60.47
2019-04-14T05:21:14.924Z,66.37
2019-04-14T05:23:49.734Z,63.40
2019-04-14T05:26:24.493Z,66.03
2019-04-14T05:28:59.371Z,64.33
2019-04-14T05:31:34.117Z,65.83
2019-04-14T05:34:08.833Z,65.40
2019-04-14T05:36:43.722Z,61.70
2019-04-14T05:39:19.983Z,61.37
2019-04-14T05:42:04.335Z,61.03
2019-04-14T05:44:31.895Z,62.20
2019-04-14T05:47:06.836Z,63.87
2019-04-14T05:49:46.888Z,63.23
2019-04-14T05:52:18.501Z,65.83
2019-04-14T05:54:53.647Z,61.67
2019-04-14T05:57:28.456Z,66.47
2019-04-14T06:00:03.859Z,63.30
2019-04-14T06:02:39.887Z,64.03
2019-04-14T06:05:14.863Z,65.63
2019-04-14T06:07:49.592Z,71.53
2019-04-14T06:10:24.417Z,64.57
2019-04-14T06:12:59.144Z,61.13
2019-04-14T06:15:34.657Z,59.00
2019-04-14T06:18:09.470Z,63.83
2019-04-14T06:20:44.319Z,62.70
2019-04-14T06:23:19.031Z,64.70
2019-04-14T06:25:53.856Z,67.93
2019-04-14T06:28:28.683Z,49.43
2019-04-14T06:31:21.596Z,60.87
2019-04-14T06:34:16.624Z,65.57
2019-04-14T06:37:02.868Z,65.10
2019-04-14T06:39:41.987Z,42.77
2019-04-14T06:42:16.801Z,66.83
2019-04-14T06:44:51.568Z,63.57
2019-04-14T06:47:26.327Z,63.27
2019-04-14T06:50:01.054Z,63.33
2019-04-14T06:52:36.912Z,56.17
2019-04-14T06:55:11.647Z,61.33
2019-04-14T06:57:46.404Z,66.10
2019-04-14T07:00:21.215Z,64.50
2019-04-14T07:02:55.962Z,54.47
2019-04-14T07:05:30.700Z,59.20
2019-04-14T07:08:05.516Z,55.27
2019-04-14T07:10:40.312Z,60.60
2019-04-14T07:13:19.253Z,54.30
2019-04-14T07:15:52.671Z,60.77
2019-04-14T07:18:27.504Z,59.30
2019-04-14T07:21:02.430Z,58.60
2019-04-14T07:23:37.250Z,54.73
2019-04-14T07:26:12.060Z,57.23
2019-04-14T07:28:56.712Z,46.90
2019-04-14T07:31:47.021Z,47.90
2019-04-14T07:34:39.769Z,49.10
2019-04-14T07:37:35.231Z,50.13
2019-04-14T07:40:28.002Z,46.77
2019-04-14T07:43:09.391Z,51.43
2019-04-14T07:45:55.150Z,41.27
2019-04-14T07:48:41.311Z,47.97
2019-04-14T07:51:26.213Z,41.57
2019-04-14T07:54:08.625Z,47.50
2019-04-14T07:57:11.343Z,53.03
2019-04-14T08:00:20.292Z,49.93
2019-04-14T08:02:59.619Z,49.53
2019-04-14T08:05:39.102Z,58.47
2019-04-14T08:08:13.850Z,64.17
2019-04-14T08:10:48.586Z,55.57
2019-04-14T08:13:23.483Z,60.50
2019-04-14T08:15:58.244Z,61.50
2019-04-14T08:18:33.079Z,59.67
2019-04-14T08:21:07.944Z,61.67
2019-04-14T08:23:42.758Z,59.73
2019-04-14T08:26:17.562Z,52.97
2019-04-14T08:28:52.376Z,60.70
2019-04-14T08:31:27.248Z,59.03
2019-04-14T08:34:02.140Z,44.13
2019-04-14T08:36:37.020Z,61.27
2019-04-14T08:39:11.852Z,58.90
2019-04-14T08:41:54.572Z,64.73
2019-04-14T08:44:35.438Z,66.93
2019-04-14T08:47:24.964Z,45.80
2019-04-14T08:50:08.009Z,66.77
2019-04-14T08:52:58.583Z,62.40
2019-04-14T08:55:55.592Z,66.70
2019-04-14T08:58:53.208Z,60.20
2019-04-14T09:01:39.965Z,59.70
2019-04-14T09:04:30.761Z,57.77
2019-04-14T09:07:25.707Z,57.70
2019-04-14T09:10:09.772Z,59.33
2019-04-14T09:12:45.299Z,61.07
2019-04-14T09:15:20.168Z,59.60
2019-04-14T09:17:54.912Z,59.23
2019-04-14T09:20:30.031Z,62.27
2019-04-14T09:23:04.989Z,63.47
2019-04-14T09:25:39.721Z,55.70
2019-04-14T09:28:14.438Z,60.23
2019-04-14T09:30:49.314Z,58.27
2019-04-14T09:33:24.044Z,59.93
2019-04-14T09:35:58.903Z,63.03
2019-04-14T09:38:33.712Z,59.63
2019-04-14T09:41:08.446Z,59.47
2019-04-14T09:43:43.279Z,66.40
2019-04-14T09:46:18.234Z,56.53
2019-04-14T09:48:53.232Z,61.03
2019-04-14T09:51:27.973Z,56.53
2019-04-14T09:54:02.773Z,61.83
2019-04-14T09:56:37.531Z,59.37
2019-04-14T09:59:12.387Z,60.43
2019-04-14T10:01:47.448Z,43.77
2019-04-14T10:04:22.168Z,44.20
2019-04-14T10:06:57.013Z,66.27
2019-04-14T10:09:31.987Z,60.60
2019-04-14T10:12:06.846Z,54.17
2019-04-14T10:14:41.567Z,62.40
2019-04-14T10:17:16.429Z,59.03
2019-04-14T10:19:51.406Z,61.50
2019-04-14T10:22:33.696Z,45.30
2019-04-14T10:25:02.619Z,61.50
2019-04-14T10:27:37.389Z,59.37
2019-04-14T10:30:12.258Z,59.00
2019-04-14T10:32:47.000Z,38.67
2019-04-14T10:35:21.819Z,57.50
2019-04-14T10:37:56.611Z,60.47
2019-04-14T10:40:31.507Z,60.07
2019-04-14T10:43:06.822Z,61.80
2019-04-14T10:45:41.555Z,53.27
2019-04-14T10:48:16.366Z,57.43
2019-04-14T10:50:51.291Z,58.07
2019-04-14T10:53:26.217Z,58.43
2019-04-14T10:56:01.046Z,58.73
2019-04-14T10:58:35.815Z,63.37
2019-04-14T11:01:13.987Z,61.50
2019-04-14T11:03:48.774Z,57.47
2019-04-14T11:06:34.494Z,56.60
2019-04-14T11:09:13.876Z,66.10
2019-04-14T11:11:48.704Z,59.00
2019-04-14T11:14:23.588Z,67.13
2019-04-14T11:16:58.327Z,49.97
2019-04-14T11:19:33.205Z,60.60
2019-04-14T11:22:08.776Z,61.00
2019-04-14T11:24:43.496Z,58.07
2019-04-14T11:27:18.263Z,50.03
2019-04-14T11:29:54.120Z,61.97
2019-04-14T11:32:48.696Z,58.03
2019-04-14T11:35:26.940Z,59.73
2019-04-14T11:38:17.035Z,47.83
2019-04-14T11:40:57.041Z,60.33
2019-04-14T11:43:31.891Z,59.53
2019-04-14T11:46:06.750Z,57.27
2019-04-14T11:48:42.047Z,63.23
2019-04-14T11:51:16.971Z,67.80
2019-04-14T11:53:51.762Z,51.23
2019-04-14T11:56:26.667Z,60.47
2019-04-14T11:59:03.634Z,55.50
2019-04-14T12:02:03.635Z,55.30
2019-04-14T12:04:51.586Z,61.03
2019-04-14T12:07:42.231Z,54.57
2019-04-14T12:10:23.294Z,62.03
2019-04-14T12:12:58.043Z,60.27
2019-04-14T12:15:34.432Z,58.70
2019-04-14T12:18:09.394Z,57.93
2019-04-14T12:20:44.323Z,59.17
2019-04-14T12:23:19.144Z,44.60
2019-04-14T12:26:05.316Z,53.77
2019-04-14T12:28:32.518Z,61.40
2019-04-14T12:31:08.688Z,67.43
2019-04-14T12:33:43.713Z,54.80
2019-04-14T12:36:19.106Z,57.10
2019-04-14T12:38:54.892Z,48.87
2019-04-14T12:41:38.395Z,60.33
2019-04-14T12:44:31.012Z,56.63
2019-04-14T12:47:27.844Z,60.10
2019-04-14T12:50:03.717Z,61.30
2019-04-14T12:52:46.494Z,59.70
2019-04-14T12:55:25.957Z,60.90
2019-04-14T12:58:05.001Z,58.13
2019-04-14T13:01:02.323Z,60.47
2019-04-14T13:03:42.021Z,60.93
2019-04-14T13:06:17.140Z,48.23
2019-04-14T13:08:52.065Z,56.77
2019-04-14T13:11:27.023Z,47.93
2019-04-14T13:14:01.968Z,58.00
2019-04-14T13:16:36.950Z,58.33
2019-04-14T13:19:11.833Z,55.23
2019-04-14T13:21:46.786Z,56.87
2019-04-14T13:24:21.506Z,58.17
2019-04-14T13:26:56.472Z,58.53
2019-04-14T13:29:31.624Z,57.27
2019-04-14T13:32:08.425Z,58.00
2019-04-14T13:34:45.091Z,60.50
2019-04-14T13:37:20.010Z,57.67
2019-04-14T13:39:55.894Z,59.47
2019-04-14T13:42:30.824Z,58.07
2019-04-14T13:45:07.515Z,57.48
2019-04-14T13:47:42.445Z,57.13
2019-04-14T13:50:24.058Z,59.97
2019-04-14T13:53:03.328Z,58.83
2019-04-14T13:55:38.572Z,59.93
2019-04-14T13:58:14.445Z,59.27
2019-04-14T14:00:49.543Z,59.27
2019-04-14T14:03:29.469Z,59.80
2019-04-14T14:06:04.626Z,56.87
2019-04-14T14:08:39.350Z,57.97
2019-04-14T14:11:23.419Z,57.93
2019-04-14T14:14:20.068Z,59.80
2019-04-14T14:17:10.972Z,58.73
2019-04-14T14:19:53.446Z,57.97
2019-04-14T14:23:02.536Z,58.07
2019-04-14T14:25:59.347Z,56.70
2019-04-14T14:28:34.074Z,57.00
2019-04-14T14:31:08.883Z,57.47
2019-04-14T14:33:45.361Z,56.87
2019-04-14T14:36:20.287Z,56.90
2019-04-14T14:38:55.358Z,56.93
2019-04-14T14:41:33.279Z,56.70
2019-04-14T14:44:08.127Z,58.17
2019-04-14T14:47:11.455Z,60.77
2019-04-14T14:50:04.804Z,58.53
2019-04-14T14:52:41.522Z,58.17
2019-04-14T14:55:16.480Z,56.07
2019-04-14T14:57:51.219Z,58.57
2019-04-14T15:00:36.196Z,60.10
2019-04-14T15:03:11.306Z,59.20
2019-04-14T15:05:46.035Z,57.90
2019-04-14T15:08:20.930Z,57.67
2019-04-14T15:10:55.664Z,57.03
2019-04-14T15:13:30.551Z,59.80
2019-04-14T15:16:06.515Z,57.60
2019-04-14T15:18:42.348Z,57.80
2019-04-14T15:21:18.203Z,59.73
2019-04-14T15:23:53.097Z,56.13
2019-04-14T15:26:27.975Z,58.80
2019-04-14T15:29:02.911Z,58.93
2019-04-14T15:31:37.660Z,56.97
2019-04-14T15:34:12.501Z,56.87
2019-04-14T15:36:47.231Z,56.23
2019-04-14T15:39:21.967Z,54.33
2019-04-14T15:41:56.707Z,54.40
2019-04-14T15:44:31.470Z,56.60
2019-04-14T15:47:06.243Z,53.70
2019-04-14T15:49:40.991Z,54.73
2019-04-14T15:52:15.805Z,55.57
2019-04-14T15:54:53.025Z,55.13
2019-04-14T15:57:32.516Z,55.10
2019-04-14T16:00:26.348Z,57.40
2019-04-14T16:03:26.031Z,54.47
2019-04-14T16:06:23.997Z,55.50
2019-04-14T16:09:17.922Z,55.43
2019-04-14T16:12:14.585Z,54.43
2019-04-14T16:15:17.651Z,56.90
2019-04-14T16:18:23.843Z,52.97
2019-04-14T16:20:58.660Z,54.90
2019-04-14T16:23:33.603Z,53.97
2019-04-14T16:26:26.284Z,53.20
2019-04-14T16:29:12.990Z,53.47
2019-04-14T16:32:15.835Z,54.23
2019-04-14T16:34:56.729Z,55.40
2019-04-14T16:37:50.708Z,54.63
2019-04-14T16:40:25.531Z,54.57
2019-04-14T16:43:00.284Z,53.00
2019-04-14T16:45:35.244Z,53.10
2019-04-14T16:48:10.255Z,52.30
2019-04-14T16:50:46.368Z,54.90
2019-04-14T16:53:29.767Z,55.17
2019-04-14T16:56:23.896Z,54.77
2019-04-14T16:59:02.255Z,54.03
2019-04-14T17:01:39.836Z,52.77
2019-04-14T17:04:14.716Z,52.77
2019-04-14T17:06:49.603Z,54.93
2019-04-14T17:09:24.409Z,54.13
2019-04-14T17:11:59.565Z,53.23
2019-04-14T17:14:39.318Z,53.63
2019-04-14T17:17:42.001Z,56.00
2019-04-14T17:20:54.176Z,62.53
2019-04-14T17:23:36.120Z,57.47
2019-04-14T17:26:17.169Z,55.60
2019-04-14T17:28:56.934Z,54.97
2019-04-14T17:31:51.183Z,56.33
2019-04-14T17:34:52.260Z,54.10
2019-04-14T17:38:04.101Z,55.17
2019-04-14T17:40:57.310Z,55.83
2019-04-14T17:43:39.036Z,54.43
2019-04-14T17:46:26.244Z,54.20
2019-04-14T17:49:18.952Z,53.47
2019-04-14T17:52:12.907Z,54.73
2019-04-14T17:55:02.479Z,54.47
2019-04-14T17:58:00.195Z,54.53
2019-04-14T18:00:47.514Z,52.30
2019-04-14T18:03:40.711Z,52.83
2019-04-14T18:06:40.696Z,53.47
2019-04-14T18:09:36.248Z,53.77
2019-04-14T18:12:30.076Z,51.40
2019-04-14T18:15:11.984Z,53.17
2019-04-14T18:18:07.654Z,52.03
2019-04-14T18:20:47.898Z,52.17
2019-04-14T18:23:22.730Z,52.57
2019-04-14T18:25:57.468Z,51.43
2019-04-14T18:28:57.525Z,50.10
2019-04-14T18:31:54.343Z,52.20
2019-04-14T18:34:37.708Z,50.20
2019-04-14T18:37:32.185Z,49.60
2019-04-14T18:40:10.763Z,48.80
2019-04-14T18:43:02.599Z,47.67
2019-04-14T18:45:44.667Z,47.83
2019-04-14T18:48:26.783Z,47.80
2019-04-14T18:51:10.025Z,49.60
2019-04-14T18:54:00.615Z,47.07
2019-04-14T18:56:54.983Z,48.70
2019-04-14T18:59:41.400Z,48.87
2019-04-14T19:02:18.392Z,50.10
2019-04-14T19:04:53.284Z,48.63
2019-04-14T19:07:28.399Z,49.73
2019-04-14T19:10:03.915Z,46.80
2019-04-14T19:12:46.792Z,48.83
2019-04-14T19:15:42.042Z,49.37
2019-04-14T19:18:28.415Z,51.43
2019-04-14T19:21:15.461Z,52.73
2019-04-14T19:23:50.380Z,54.43
2019-04-14T19:26:28.260Z,54.93
2019-04-14T19:29:03.230Z,53.93
2019-04-14T19:31:38.147Z,54.07
2019-04-14T19:34:12.919Z,50.67
2019-04-14T19:36:47.865Z,49.20
2019-04-14T19:39:24.859Z,50.30
2019-04-14T19:41:59.668Z,49.17
2019-04-14T19:44:34.647Z,51.40
2019-04-14T19:47:09.429Z,48.70
2019-04-14T19:49:44.235Z,48.10
2019-04-14T19:52:19.076Z,48.40
2019-04-14T19:54:53.952Z,49.20
2019-04-14T19:57:29.042Z,47.80
2019-04-14T20:00:05.870Z,47.70
2019-04-14T20:02:40.967Z,48.33
2019-04-14T20:05:15.989Z,47.27
2019-04-14T20:07:51.039Z,48.17
2019-04-14T20:10:28.754Z,50.90
2019-04-14T20:13:03.656Z,52.80
2019-04-14T20:15:57.568Z,91.77
2019-04-14T20:19:10.239Z,66.63
2019-04-14T20:21:58.879Z,53.93
2019-04-14T20:24:50.781Z,53.97
2019-04-14T20:27:35.440Z,51.50
2019-04-14T20:30:14.469Z,50.07
2019-04-14T20:32:50.483Z,50.60
2019-04-14T20:35:25.300Z,51.47
2019-04-14T20:38:00.219Z,54.30
2019-04-14T20:40:35.175Z,51.77
2019-04-14T20:43:09.899Z,52.60
2019-04-14T20:45:44.717Z,50.83
2019-04-14T20:48:19.487Z,50.43
2019-04-14T20:50:54.234Z,48.40
2019-04-14T20:53:29.059Z,47.93
2019-04-14T20:56:03.880Z,48.70
2019-04-14T20:58:38.815Z,49.27
2019-04-14T21:01:15.222Z,48.50
2019-04-14T21:03:58.268Z,48.07
2019-04-14T21:06:52.107Z,48.00
2019-04-14T21:09:52.119Z,48.90
2019-04-14T21:12:54.953Z,49.67
2019-04-14T21:15:45.461Z,49.57
2019-04-14T21:18:42.784Z,49.00
2019-04-14T21:21:23.021Z,49.40
2019-04-14T21:24:19.801Z,49.27
2019-04-14T21:27:00.477Z,49.53
2019-04-14T21:29:43.480Z,47.70
2019-04-14T21:32:21.863Z,49.00
2019-04-14T21:35:04.982Z,48.03
2019-04-14T21:38:01.652Z,49.10
2019-04-14T21:40:51.520Z,47.13
2019-04-14T21:43:26.248Z,47.87
2019-04-14T21:46:01.004Z,47.90
2019-04-14T21:48:35.722Z,46.33
2019-04-14T21:51:12.143Z,45.97
2019-04-14T21:53:47.804Z,45.23
2019-04-14T21:56:35.050Z,45.63
2019-04-14T21:59:16.277Z,46.77
2019-04-14T22:02:09.128Z,45.63
2019-04-14T22:05:05.911Z,43.93
2019-04-14T22:07:58.545Z,43.17
2019-04-14T22:10:43.207Z,44.13
2019-04-14T22:13:18.037Z,43.83
2019-04-14T22:15:52.908Z,41.90
2019-04-14T22:18:27.740Z,42.10
2019-04-14T22:21:02.552Z,42.27
2019-04-14T22:23:37.665Z,42.13
2019-04-14T22:26:25.166Z,45.90
2019-04-14T22:28:49.014Z,45.43
2019-04-14T22:31:23.852Z,45.00
2019-04-14T22:33:58.595Z,45.70
2019-04-14T22:36:33.360Z,41.80
2019-04-14T22:39:09.899Z,42.03
2019-04-14T22:41:45.722Z,41.43
2019-04-14T22:44:20.617Z,41.93
2019-04-14T22:46:55.351Z,40.60
2019-04-14T22:49:30.083Z,39.80
2019-04-14T22:52:05.116Z,40.27
2019-04-14T22:54:39.827Z,40.10
2019-04-14T22:57:14.571Z,41.43
2019-04-14T22:59:49.369Z,41.93
2019-04-14T23:02:49.217Z,42.90
2019-04-14T23:05:41.761Z,42.27
2019-04-14T23:08:47.742Z,42.03
2019-04-14T23:11:33.260Z,42.73
2019-04-14T23:14:25.860Z,41.63
2019-04-14T23:17:19.285Z,41.57
2019-04-14T23:20:12.117Z,41.80
2019-04-14T23:22:57.747Z,41.20
2019-04-14T23:25:32.766Z,42.50
2019-04-14T23:28:07.578Z,42.07
2019-04-14T23:30:42.372Z,42.83
2019-04-14T23:33:17.202Z,42.63
2019-04-14T23:35:52.033Z,41.83
2019-04-14T23:38:26.851Z,41.50
2019-04-14T23:41:01.584Z,41.50
2019-04-14T23:43:36.477Z,41.70
2019-04-14T23:46:11.292Z,41.03
2019-04-14T23:48:46.092Z,41.97
2019-04-14T23:51:20.848Z,44.00
2019-04-14T23:53:56.104Z,44.10
2019-04-14T23:56:31.020Z,42.97
2019-04-14T23:59:05.987Z,41.37
